Time;durP1;ratioP1;P1;durP2;ratioP2;P2;SDS_P1;SDS_P2;PMS_P1;PMS_P2;Temp;Humidity;BMP_temperature;BMP_pressure;BME280_temperature;BME280_humidity;BME280_pressure;Samples;Min_cycle;Max_cycle;Signal;HPM_P1;HPM_P2
2023/10/24 00:01:35;;;;;;;2.57;1.30;;;14.40;99.90;;;;;;4971586;28;20110;-17
2023/10/24 00:04:01;;;;;;;2.83;1.42;;;14.40;99.90;;;;;;4968091;28;20062;-16
2023/10/24 00:06:27;;;;;;;1.70;1.20;;;14.30;99.90;;;;;;4949214;28;20034;-16
2023/10/24 00:08:53;;;;;;;2.50;1.30;;;14.30;99.90;;;;;;4970566;28;20221;-18
2023/10/24 00:11:18;;;;;;;2.53;1.60;;;14.30;99.90;;;;;;4961798;28;20054;-19
2023/10/24 00:13:44;;;;;;;2.25;1.30;;;14.30;99.90;;;;;;4960603;28;20030;-18
2023/10/24 00:16:10;;;;;;;2.50;1.70;;;14.30;99.90;;;;;;4968944;28;20077;-18
2023/10/24 00:18:36;;;;;;;3.60;1.83;;;14.30;99.90;;;;;;4973616;28;20041;-17
2023/10/24 00:21:02;;;;;;;2.65;1.60;;;14.30;99.90;;;;;;4940103;28;20023;-18
2023/10/24 00:23:29;;;;;;;1.87;1.30;;;14.30;99.90;;;;;;4971462;28;20616;-18
2023/10/24 00:25:55;;;;;;;2.05;1.40;;;14.30;99.90;;;;;;4968323;28;20556;-18
2023/10/24 00:28:20;;;;;;;1.77;1.08;;;14.30;99.90;;;;;;4972278;28;20036;-18
2023/10/24 00:30:46;;;;;;;2.10;1.20;;;14.30;99.90;;;;;;4958529;28;20082;-18
2023/10/24 00:33:11;;;;;;;1.58;1.05;;;14.20;99.90;;;;;;4974095;28;20026;-18
2023/10/24 00:35:37;;;;;;;1.93;1.13;;;14.20;99.90;;;;;;4939691;28;20038;-18
2023/10/24 00:38:03;;;;;;;2.00;1.00;;;14.20;99.90;;;;;;4987230;28;20033;-18
2023/10/24 00:40:29;;;;;;;1.70;1.00;;;14.20;99.90;;;;;;4974059;28;20038;-18
2023/10/24 00:43:01;;;;;;;1.50;1.10;;;14.20;99.90;;;;;;4960678;28;20671;-18
2023/10/24 00:45:27;;;;;;;1.23;0.83;;;14.20;99.90;;;;;;4959292;28;20038;-18
2023/10/24 00:47:53;;;;;;;3.58;1.20;;;14.20;99.90;;;;;;4970276;28;20432;-18
2023/10/24 00:50:18;;;;;;;1.93;1.10;;;14.20;99.90;;;;;;4960383;28;20480;-18
2023/10/24 00:52:45;;;;;;;1.53;1.00;;;14.10;99.90;;;;;;4961565;28;20344;-18
2023/10/24 00:55:12;;;;;;;1.48;0.80;;;14.10;99.90;;;;;;4987356;28;20509;-18
2023/10/24 00:57:39;;;;;;;0.80;0.70;;;14.10;99.90;;;;;;4958732;28;20820;-18
2023/10/24 01:00:07;;;;;;;1.15;0.70;;;14.00;99.90;;;;;;4957279;28;20037;-18
2023/10/24 01:02:33;;;;;;;0.67;0.63;;;14.00;99.90;;;;;;4954110;28;20030;-18
2023/10/24 01:05:00;;;;;;;0.90;0.70;;;14.00;99.90;;;;;;4987543;28;20026;-18
2023/10/24 01:07:26;;;;;;;1.25;0.90;;;13.90;99.90;;;;;;4943643;28;20117;-18
2023/10/24 01:09:51;;;;;;;1.07;0.60;;;13.90;99.90;;;;;;4973746;28;20231;-18
2023/10/24 01:12:17;;;;;;;0.65;0.60;;;13.90;99.90;;;;;;4971283;28;20583;-18
2023/10/24 01:14:43;;;;;;;0.90;0.70;;;13.90;99.90;;;;;;4958465;28;20379;-18
2023/10/24 01:17:13;;;;;;;1.03;0.80;;;13.80;99.90;;;;;;4958894;28;20060;-18
2023/10/24 01:19:39;;;;;;;1.95;0.90;;;13.80;99.90;;;;;;4966697;28;20216;-18
2023/10/24 01:22:05;;;;;;;0.95;0.70;;;13.80;99.90;;;;;;4989483;28;20030;-18
2023/10/24 01:24:31;;;;;;;1.53;1.00;;;13.80;99.90;;;;;;4941876;28;20220;-18
2023/10/24 01:26:57;;;;;;;1.27;0.93;;;13.80;99.90;;;;;;4969612;28;20033;-18
2023/10/24 01:29:24;;;;;;;1.38;0.85;;;13.80;99.90;;;;;;4969494;28;20603;-16
2023/10/24 01:31:49;;;;;;;1.20;0.80;;;13.70;99.90;;;;;;4958796;28;20480;-15
2023/10/24 01:34:15;;;;;;;1.63;1.03;;;13.80;99.90;;;;;;4970134;28;20106;-16
2023/10/24 01:36:41;;;;;;;1.30;0.90;;;13.70;99.90;;;;;;4955860;28;20372;-16
2023/10/24 01:39:07;;;;;;;1.27;1.00;;;13.70;99.90;;;;;;4948278;28;20306;-15
2023/10/24 01:41:34;;;;;;;1.40;1.00;;;13.80;99.90;;;;;;4967347;28;20035;-15
2023/10/24 01:44:00;;;;;;;1.67;1.00;;;13.80;99.90;;;;;;4983751;28;20473;-15
2023/10/24 01:46:25;;;;;;;1.80;1.00;;;13.80;99.90;;;;;;4967230;28;20043;-16
2023/10/24 01:48:52;;;;;;;1.43;1.00;;;13.80;99.90;;;;;;4970675;28;20499;-15
2023/10/24 01:51:17;;;;;;;1.30;0.90;;;13.80;99.90;;;;;;4968732;28;20058;-16
2023/10/24 01:53:43;;;;;;;1.60;0.90;;;13.80;99.90;;;;;;4941770;28;20250;-16
2023/10/24 01:56:12;;;;;;;1.83;0.83;;;13.90;99.90;;;;;;4970725;28;20106;-15
2023/10/24 01:58:38;;;;;;;1.50;0.93;;;13.80;99.90;;;;;;4967292;28;20105;-15
2023/10/24 02:01:06;;;;;;;1.48;0.90;;;13.80;99.90;;;;;;4968101;28;20601;-15
2023/10/24 02:03:32;;;;;;;1.40;0.93;;;13.90;99.90;;;;;;4971223;28;20043;-15
2023/10/24 02:05:58;;;;;;;1.20;0.83;;;13.90;99.90;;;;;;4969030;28;20035;-16
2023/10/24 02:08:24;;;;;;;1.50;0.90;;;13.90;99.90;;;;;;4953039;28;20038;-16
2023/10/24 02:10:50;;;;;;;1.52;1.13;;;13.90;99.90;;;;;;4964270;28;20461;-15
2023/10/24 02:13:16;;;;;;;1.60;1.10;;;13.90;99.90;;;;;;4981149;28;20107;-16
2023/10/24 02:15:42;;;;;;;1.70;1.10;;;13.90;99.90;;;;;;4971163;28;20605;-15
2023/10/24 02:18:08;;;;;;;1.65;1.00;;;14.90;99.90;;;;;;4962977;28;20038;-15
2023/10/24 02:20:34;;;;;;;1.50;1.03;;;13.90;99.90;;;;;;4982282;28;20168;-15
2023/10/24 02:23:00;;;;;;;3.40;1.37;;;13.90;99.90;;;;;;4972298;28;20285;-15
2023/10/24 02:25:25;;;;;;;2.05;1.35;;;13.90;99.90;;;;;;4959438;28;20042;-16
2023/10/24 02:27:52;;;;;;;2.17;1.30;;;13.90;99.90;;;;;;4969884;28;20523;-15
2023/10/24 02:30:18;;;;;;;1.90;1.20;;;13.90;99.90;;;;;;4973622;28;20093;-16
2023/10/24 02:32:44;;;;;;;2.58;1.17;;;13.90;99.90;;;;;;4961662;28;20896;-15
2023/10/24 02:35:10;;;;;;;2.30;1.13;;;13.90;99.90;;;;;;4979500;28;20076;-15
2023/10/24 02:37:36;;;;;;;1.85;1.10;;;13.90;99.90;;;;;;4972334;28;20088;-15
2023/10/24 02:40:02;;;;;;;2.70;1.33;;;13.90;99.90;;;;;;4948635;28;20690;-15
2023/10/24 02:42:28;;;;;;;2.20;1.40;;;13.90;99.90;;;;;;4969274;28;20614;-16
2023/10/24 02:44:54;;;;;;;2.40;1.43;;;13.90;99.90;;;;;;4973347;28;20050;-15
2023/10/24 02:47:20;;;;;;;2.15;1.27;;;13.90;99.90;;;;;;4972806;28;20657;-16
2023/10/24 02:49:48;;;;;;;2.23;1.40;;;13.90;99.90;;;;;;4976905;28;20425;-15
2023/10/24 02:52:14;;;;;;;2.47;1.52;;;13.90;99.90;;;;;;4973556;28;20027;-16
2023/10/24 02:54:40;;;;;;;2.15;1.45;;;13.90;99.90;;;;;;4973764;28;20428;-15
2023/10/24 02:57:05;;;;;;;2.77;1.40;;;13.90;99.90;;;;;;4954540;28;20038;-15
2023/10/24 02:59:31;;;;;;;2.25;1.27;;;13.90;99.90;;;;;;4968230;28;20472;-15
2023/10/24 03:01:57;;;;;;;2.47;1.40;;;13.90;99.90;;;;;;4989195;28;20026;-15
2023/10/24 03:04:22;;;;;;;2.20;1.40;;;13.90;99.90;;;;;;4963224;28;20038;-16
2023/10/24 03:06:48;;;;;;;2.33;1.48;;;13.90;99.90;;;;;;4967099;28;20035;-16
2023/10/24 03:09:14;;;;;;;3.40;1.48;;;15.80;99.90;;;;;;4972721;28;20049;-16
2023/10/24 03:11:40;;;;;;;2.30;1.20;;;13.90;99.90;;;;;;4945544;28;21111;-16
2023/10/24 03:14:05;;;;;;;2.40;1.50;;;13.90;99.90;;;;;;4971872;28;20408;-15
2023/10/24 03:16:33;;;;;;;2.20;1.50;;;13.90;99.90;;;;;;4969262;28;20534;-15
2023/10/24 03:18:59;;;;;;;2.50;1.40;;;13.90;99.90;;;;;;4972756;28;20062;-15
2023/10/24 03:21:25;;;;;;;2.45;1.40;;;13.90;99.90;;;;;;4961339;28;20100;-16
2023/10/24 03:23:51;;;;;;;2.07;1.40;;;13.90;99.90;;;;;;4973858;28;20038;-15
2023/10/24 03:26:18;;;;;;;2.10;1.33;;;13.90;99.90;;;;;;4962472;28;21211;-16
2023/10/24 03:28:45;;;;;;;1.77;1.07;;;13.90;99.90;;;;;;4961572;28;20027;-15
2023/10/24 03:31:10;;;;;;;1.80;1.20;;;13.90;99.90;;;;;;4971387;28;20026;-16
2023/10/24 03:33:36;;;;;;;2.00;1.40;;;13.90;99.90;;;;;;4967182;28;20089;-15
2023/10/24 03:36:02;;;;;;;2.23;1.40;;;14.00;99.90;;;;;;4961267;28;20041;-16
2023/10/24 03:38:28;;;;;;;1.70;1.05;;;13.90;99.90;;;;;;4972051;28;20035;-16
2023/10/24 03:40:54;;;;;;;2.70;1.30;;;13.90;99.90;;;;;;4985755;28;20515;-15
2023/10/24 03:43:21;;;;;;;1.80;1.10;;;13.90;99.90;;;;;;4962009;28;20455;-16
2023/10/24 03:45:47;;;;;;;1.90;1.10;;;13.90;99.90;;;;;;4970563;28;20034;-15
2023/10/24 03:48:13;;;;;;;1.55;0.95;;;13.90;99.90;;;;;;4977083;28;20037;-16
2023/10/24 03:50:39;;;;;;;1.63;1.10;;;13.90;99.90;;;;;;4958017;28;20061;-15
2023/10/24 03:53:06;;;;;;;2.13;1.25;;;14.00;99.90;;;;;;4974344;28;20022;-15
2023/10/24 03:55:35;;;;;;;1.98;1.23;;;13.90;99.90;;;;;;4970414;28;20030;-15
2023/10/24 03:58:00;;;;;;;1.95;1.13;;;13.90;99.90;;;;;;4975017;28;20570;-16
2023/10/24 04:00:27;;;;;;;2.43;1.30;;;13.90;99.90;;;;;;4957480;28;20042;-16
2023/10/24 04:02:54;;;;;;;1.73;1.10;;;14.00;99.90;;;;;;4972974;28;20030;-15
2023/10/24 04:05:20;;;;;;;1.92;1.30;;;14.00;99.90;;;;;;4975972;28;20022;-16
2023/10/24 04:07:46;;;;;;;1.95;1.00;;;13.90;99.90;;;;;;4972030;28;20261;-16
2023/10/24 04:10:12;;;;;;;1.70;1.10;;;14.00;99.90;;;;;;4970647;28;20038;-16
2023/10/24 04:12:38;;;;;;;1.92;1.23;;;14.00;99.90;;;;;;4980629;28;20701;-16
2023/10/24 04:15:05;;;;;;;2.00;1.20;;;14.00;99.90;;;;;;4950683;28;20097;-15
2023/10/24 04:17:32;;;;;;;2.50;1.27;;;14.00;99.90;;;;;;4987237;28;20150;-15
2023/10/24 04:19:58;;;;;;;2.38;1.20;;;14.00;99.90;;;;;;4971776;28;20034;-15
2023/10/24 04:22:24;;;;;;;1.52;1.00;;;14.00;99.90;;;;;;4961233;28;20097;-16
2023/10/24 04:24:50;;;;;;;2.35;1.30;;;13.90;99.90;;;;;;4973803;28;20880;-15
2023/10/24 04:27:16;;;;;;;2.50;1.40;;;14.00;99.90;;;;;;4986745;28;20054;-16
2023/10/24 04:29:42;;;;;;;1.85;1.15;;;14.00;99.90;;;;;;4986246;28;20023;-16
2023/10/24 04:32:08;;;;;;;2.55;1.30;;;13.90;99.90;;;;;;4947413;28;20026;-15
2023/10/24 04:34:34;;;;;;;2.30;1.40;;;13.90;99.90;;;;;;4964517;28;20512;-16
2023/10/24 04:37:01;;;;;;;2.50;1.27;;;13.90;99.90;;;;;;4970103;28;20369;-15
2023/10/24 04:39:27;;;;;;;2.92;1.50;;;13.90;99.90;;;;;;4955571;28;20069;-16
2023/10/24 04:41:54;;;;;;;3.30;1.90;;;13.90;99.90;;;;;;4970385;28;20033;-15
2023/10/24 04:44:20;;;;;;;3.28;1.40;;;13.90;99.90;;;;;;4983709;28;20030;-16
2023/10/24 04:46:46;;;;;;;2.13;1.38;;;13.90;99.90;;;;;;4946985;28;20030;-15
2023/10/24 04:49:12;;;;;;;2.80;1.50;;;13.90;99.90;;;;;;4971919;28;20089;-16
2023/10/24 04:51:38;;;;;;;2.33;1.40;;;13.90;99.90;;;;;;4972527;28;20109;-16
2023/10/24 04:54:04;;;;;;;2.03;1.30;;;13.90;99.90;;;;;;4957934;28;20027;-15
2023/10/24 04:56:29;;;;;;;3.17;1.83;;;13.90;99.90;;;;;;4967242;28;20105;-16
2023/10/24 04:58:56;;;;;;;2.60;1.60;;;13.90;99.90;;;;;;4971878;28;20133;-15
2023/10/24 05:01:22;;;;;;;3.42;1.58;;;13.90;99.90;;;;;;4923182;28;20091;-15
2023/10/24 05:03:48;;;;;;;3.10;1.65;;;13.90;99.90;;;;;;4969406;28;20133;-16
2023/10/24 05:06:13;;;;;;;2.73;1.73;;;13.90;99.90;;;;;;4946468;28;20141;-16
2023/10/24 05:08:39;;;;;;;2.38;1.42;;;13.90;99.90;;;;;;4947964;28;20612;-16
2023/10/24 05:11:05;;;;;;;2.67;1.60;;;13.90;99.90;;;;;;4964623;28;20029;-16
2023/10/24 05:13:31;;;;;;;3.70;2.10;;;13.80;99.90;;;;;;4970699;28;20484;-16
2023/10/24 05:15:57;;;;;;;2.83;1.75;;;13.90;99.90;;;;;;4937841;28;20038;-17
2023/10/24 05:18:23;;;;;;;2.77;1.60;;;13.90;99.90;;;;;;4959982;28;20567;-15
2023/10/24 05:20:48;;;;;;;4.13;2.20;;;13.90;99.90;;;;;;4970566;28;20030;-16
2023/10/24 05:23:14;;;;;;;3.47;2.10;;;13.80;99.90;;;;;;4942280;28;20480;-18
2023/10/24 05:25:42;;;;;;;4.65;2.42;;;13.90;99.90;;;;;;4967689;28;20205;-18
2023/10/24 05:28:07;;;;;;;3.90;2.30;;;13.80;99.90;;;;;;4972644;28;20039;-18
2023/10/24 05:30:33;;;;;;;4.33;2.00;;;13.80;99.90;;;;;;4982273;28;20220;-18
2023/10/24 05:32:59;;;;;;;3.25;2.10;;;13.80;99.90;;;;;;4937701;28;20126;-16
2023/10/24 05:35:25;;;;;;;4.37;2.40;;;13.80;99.90;;;;;;4956358;28;20511;-17
2023/10/24 05:37:51;;;;;;;4.15;1.77;;;13.80;99.90;;;;;;4973349;28;20649;-16
2023/10/24 05:40:17;;;;;;;3.15;1.65;;;13.80;99.90;;;;;;4949444;28;20815;-16
2023/10/24 05:42:44;;;;;;;3.92;2.30;;;13.80;99.90;;;;;;4969613;28;20030;-16
2023/10/24 05:45:10;;;;;;;3.92;2.00;;;13.80;99.90;;;;;;4969622;28;20547;-16
2023/10/24 05:47:35;;;;;;;3.10;1.90;;;13.80;99.90;;;;;;4964105;28;20022;-16
2023/10/24 05:50:01;;;;;;;4.03;2.15;;;13.80;99.90;;;;;;4959294;28;20022;-16
2023/10/24 05:52:27;;;;;;;6.63;3.00;;;13.80;99.90;;;;;;4968465;28;20081;-17
2023/10/24 05:54:52;;;;;;;4.78;2.65;;;13.80;99.90;;;;;;4931939;28;20685;-16
2023/10/24 05:57:18;;;;;;;3.83;2.27;;;13.80;99.90;;;;;;4975382;28;20149;-16
2023/10/24 05:59:44;;;;;;;4.03;2.47;;;13.80;99.90;;;;;;4975225;28;20592;-16
2023/10/24 06:02:10;;;;;;;3.63;2.30;;;13.80;99.90;;;;;;4959598;28;20026;-18
2023/10/24 06:04:36;;;;;;;5.15;2.38;;;13.80;99.90;;;;;;4947611;28;20061;-18
2023/10/24 06:07:02;;;;;;;3.50;2.28;;;13.70;99.90;;;;;;4961448;28;20728;-18
2023/10/24 06:09:28;;;;;;;3.70;2.20;;;13.70;99.90;;;;;;4959561;28;20093;-18
2023/10/24 06:11:54;;;;;;;4.20;2.40;;;13.70;99.90;;;;;;4961271;28;20242;-19
2023/10/24 06:14:19;;;;;;;5.35;2.70;;;13.60;99.90;;;;;;4977850;28;20658;-18
2023/10/24 06:16:45;;;;;;;3.13;2.00;;;13.60;99.90;;;;;;4952970;28;22376;-18
2023/10/24 06:19:11;;;;;;;3.47;2.05;;;13.60;99.90;;;;;;4949747;28;20030;-18
2023/10/24 06:21:36;;;;;;;4.03;2.17;;;13.50;99.90;;;;;;4968568;28;20618;-18
2023/10/24 06:24:02;;;;;;;3.95;2.13;;;13.50;99.90;;;;;;4970736;28;20030;-18
2023/10/24 06:26:28;;;;;;;3.73;2.10;;;13.50;99.90;;;;;;4958261;28;20185;-18
2023/10/24 06:28:54;;;;;;;4.20;2.40;;;13.50;99.90;;;;;;4963988;28;20053;-18
2023/10/24 06:31:20;;;;;;;3.40;2.10;;;13.50;99.90;;;;;;4969348;28;20128;-19
2023/10/24 06:33:46;;;;;;;3.42;2.13;;;13.40;99.90;;;;;;4939882;28;20549;-18
2023/10/24 06:36:12;;;;;;;3.60;2.15;;;13.40;99.90;;;;;;4976533;28;20030;-18
2023/10/24 06:38:38;;;;;;;3.67;1.93;;;13.50;99.90;;;;;;4956485;28;20042;-19
2023/10/24 06:41:07;;;;;;;2.90;1.80;;;13.50;99.90;;;;;;4961089;28;20397;-18
2023/10/24 06:43:33;;;;;;;3.00;1.90;;;16.10;99.90;;;;;;4964335;28;20084;-19
2023/10/24 06:45:59;;;;;;;3.20;1.70;;;13.40;99.90;;;;;;4945929;28;20745;-19
2023/10/24 06:48:25;;;;;;;3.03;1.80;;;13.50;99.90;;;;;;4955469;28;20038;-18
2023/10/24 06:50:51;;;;;;;3.97;2.05;;;13.50;99.90;;;;;;4949900;28;20696;-19
2023/10/24 06:53:16;;;;;;;3.50;1.87;;;13.50;99.90;;;;;;4966627;28;20511;-19
2023/10/24 06:55:42;;;;;;;3.10;1.80;;;13.50;99.90;;;;;;4972134;28;20137;-19
2023/10/24 06:58:08;;;;;;;2.43;1.60;;;13.50;99.90;;;;;;4958096;28;20561;-19
2023/10/24 07:00:33;;;;;;;3.70;2.10;;;13.60;99.90;;;;;;4962649;28;20216;-19
2023/10/24 07:02:59;;;;;;;3.40;1.80;;;13.60;99.90;;;;;;4951407;28;20041;-19
2023/10/24 07:05:26;;;;;;;3.05;1.83;;;13.60;99.90;;;;;;4958548;28;20065;-19
2023/10/24 07:07:52;;;;;;;2.80;2.03;;;13.70;99.90;;;;;;4976235;28;20038;-19
2023/10/24 07:10:19;;;;;;;2.70;1.77;;;13.70;99.90;;;;;;4939660;28;20311;-19
2023/10/24 07:12:45;;;;;;;3.45;2.03;;;13.70;99.90;;;;;;4944684;28;20599;-19
2023/10/24 07:15:10;;;;;;;3.30;2.07;;;13.80;99.90;;;;;;4954734;28;20048;-19
2023/10/24 07:17:36;;;;;;;4.55;2.10;;;13.80;99.90;;;;;;4957506;28;20026;-19
2023/10/24 07:20:02;;;;;;;3.17;1.87;;;13.90;99.90;;;;;;4939578;28;20060;-19
2023/10/24 07:22:28;;;;;;;3.55;2.08;;;13.90;99.90;;;;;;4972956;28;20088;-19
2023/10/24 07:24:54;;;;;;;3.35;2.13;;;14.00;99.90;;;;;;4967466;28;20241;-19
2023/10/24 07:27:21;;;;;;;3.33;2.00;;;14.10;99.90;;;;;;4973710;28;20042;-19
2023/10/24 07:29:46;;;;;;;7.53;2.40;;;14.20;99.90;;;;;;4957916;28;20268;-19
2023/10/24 07:32:13;;;;;;;2.83;1.95;;;14.40;99.90;;;;;;4965633;28;20101;-19
2023/10/24 07:34:41;;;;;;;5.53;2.10;;;14.50;99.90;;;;;;4956451;28;20042;-19
2023/10/24 07:37:10;;;;;;;3.35;1.90;;;14.70;99.90;;;;;;4952253;28;20014;-19
2023/10/24 07:39:36;;;;;;;2.67;1.70;;;14.80;99.90;;;;;;4985059;28;20050;-19
2023/10/24 07:42:03;;;;;;;3.17;2.08;;;14.90;99.90;;;;;;4969412;28;20432;-19
2023/10/24 07:44:28;;;;;;;3.03;1.92;;;14.90;99.90;;;;;;4961078;28;20142;-19
2023/10/24 07:46:54;;;;;;;1.93;1.60;;;14.80;99.90;;;;;;4956377;28;20031;-19
2023/10/24 07:49:20;;;;;;;3.97;1.70;;;14.90;99.90;;;;;;4932150;28;20038;-19
2023/10/24 07:51:45;;;;;;;3.00;1.70;;;14.90;99.90;;;;;;4938493;28;20041;-20
2023/10/24 07:54:11;;;;;;;2.40;1.70;;;14.90;99.90;;;;;;4971223;28;20030;-20
2023/10/24 07:56:41;;;;;;;2.63;1.67;;;15.00;99.90;;;;;;4966537;28;20019;-19
2023/10/24 07:59:07;;;;;;;2.97;1.60;;;15.00;99.90;;;;;;4913784;28;1509945;-19
2023/10/24 08:01:34;;;;;;;2.78;1.70;;;15.00;99.90;;;;;;4957159;28;20030;-20
2023/10/24 08:03:59;;;;;;;2.78;1.85;;;15.00;99.90;;;;;;4972713;28;20398;-20
2023/10/24 08:06:25;;;;;;;3.40;1.80;;;15.00;99.90;;;;;;4941749;28;20530;-20
2023/10/24 08:08:51;;;;;;;3.22;1.85;;;15.00;99.90;;;;;;4981627;28;20061;-20
2023/10/24 08:11:17;;;;;;;2.20;1.60;;;15.00;99.90;;;;;;4971675;28;20235;-20
2023/10/24 08:13:43;;;;;;;2.77;1.90;;;15.00;99.90;;;;;;4960164;28;20285;-20
2023/10/24 08:16:08;;;;;;;2.78;1.60;;;15.10;99.90;;;;;;4963339;28;20032;-20
2023/10/24 08:18:34;;;;;;;2.67;1.77;;;15.10;99.90;;;;;;4953231;28;20038;-20
2023/10/24 08:21:00;;;;;;;3.80;2.10;;;15.10;99.90;;;;;;4962306;28;20590;-20
2023/10/24 08:23:29;;;;;;;3.07;1.90;;;15.20;99.90;;;;;;4946151;28;20046;-20
2023/10/24 08:25:56;;;;;;;2.90;1.70;;;15.20;99.90;;;;;;4964003;28;20056;-20
2023/10/24 08:28:22;;;;;;;3.17;1.73;;;15.20;99.90;;;;;;4962603;28;20034;-20
2023/10/24 08:30:48;;;;;;;3.15;1.80;;;15.30;99.90;;;;;;4956484;28;20252;-20
2023/10/24 08:33:15;;;;;;;2.80;1.70;;;15.30;99.90;;;;;;4985143;28;20118;-20
2023/10/24 08:35:41;;;;;;;2.80;1.58;;;15.30;99.90;;;;;;4948256;28;20050;-20
2023/10/24 08:38:06;;;;;;;2.88;1.90;;;15.30;99.90;;;;;;4944102;28;20037;-20
2023/10/24 08:40:32;;;;;;;4.77;2.03;;;15.30;99.90;;;;;;4967132;28;20034;-20
2023/10/24 08:42:58;;;;;;;3.50;2.20;;;15.30;99.90;;;;;;4963742;28;20225;-20
2023/10/24 08:45:26;;;;;;;3.85;2.30;;;15.30;99.90;;;;;;4965134;28;20041;-20
2023/10/24 08:47:53;;;;;;;3.67;2.40;;;15.30;99.90;;;;;;4972279;28;20042;-20
2023/10/24 08:50:19;;;;;;;2.80;1.80;;;15.30;99.90;;;;;;4942739;28;20089;-20
2023/10/24 08:52:45;;;;;;;3.22;1.92;;;18.10;99.90;;;;;;4937061;28;20070;-20
2023/10/24 08:55:12;;;;;;;2.92;2.10;;;15.30;99.90;;;;;;4951932;28;20352;-21
2023/10/24 08:57:42;;;;;;;5.15;2.90;;;15.20;99.90;;;;;;4942811;28;20771;-21
2023/10/24 09:00:14;;;;;;;2.63;1.83;;;15.20;99.90;;;;;;4965092;28;20042;-21
2023/10/24 09:02:44;;;;;;;2.80;1.83;;;15.20;99.90;;;;;;4956409;28;20117;-21
2023/10/24 09:05:14;;;;;;;2.58;1.90;;;15.20;99.90;;;;;;4971284;28;20497;-21
2023/10/24 09:07:40;;;;;;;3.30;2.20;;;15.20;99.90;;;;;;4952344;28;20157;-21
2023/10/24 09:10:07;;;;;;;3.55;2.40;;;15.10;99.90;;;;;;4945402;28;20483;-21
2023/10/24 09:12:34;;;;;;;3.50;2.13;;;15.20;99.90;;;;;;4968850;28;20582;-19
2023/10/24 09:15:01;;;;;;;4.28;2.85;;;15.10;99.90;;;;;;4976801;28;20231;-19
2023/10/24 09:17:30;;;;;;;4.50;2.25;;;15.10;99.90;;;;;;4949896;28;20038;-19
2023/10/24 09:19:56;;;;;;;2.92;1.98;;;15.10;99.90;;;;;;4979300;28;20387;-19
2023/10/24 09:22:22;;;;;;;3.57;2.20;;;15.10;99.90;;;;;;4950450;28;20030;-18
2023/10/24 09:24:49;;;;;;;3.28;2.15;;;15.10;99.90;;;;;;4943365;28;20027;-18
2023/10/24 09:27:16;;;;;;;3.70;2.20;;;15.00;99.90;;;;;;4971190;28;20447;-17
2023/10/24 09:29:42;;;;;;;3.08;2.08;;;15.10;99.90;;;;;;4967331;28;20018;-17
2023/10/24 09:32:16;;;;;;;2.90;1.87;;;15.10;99.90;;;;;;4959405;28;20033;-16
2023/10/24 09:34:43;;;;;;;3.78;2.50;;;15.00;99.90;;;;;;4959067;28;20030;-16
2023/10/24 09:37:10;;;;;;;2.97;1.95;;;15.00;99.90;;;;;;4960928;28;20184;-15
2023/10/24 09:39:58;;;;;;;4.05;2.63;;;14.90;99.90;;;;;;4934263;28;20034;-16
2023/10/24 09:42:29;;;;;;;4.13;2.38;;;14.90;99.90;;;;;;4969026;28;20043;-16
2023/10/24 09:44:57;;;;;;;2.90;1.90;;;14.90;99.90;;;;;;4962983;28;20023;-15
2023/10/24 09:47:23;;;;;;;2.50;1.83;;;14.80;99.90;;;;;;4959835;28;20034;-15
2023/10/24 09:49:53;;;;;;;8.60;2.90;;;14.80;99.90;;;;;;4946073;28;20029;-16
2023/10/24 09:52:20;;;;;;;3.55;2.25;;;14.80;99.90;;;;;;4968979;28;20031;-15
2023/10/24 09:54:50;;;;;;;3.05;1.90;;;14.70;99.90;;;;;;4925474;28;20782;-16
2023/10/24 09:57:20;;;;;;;4.80;2.20;;;14.70;99.90;;;;;;4965852;28;20137;-15
2023/10/24 09:59:47;;;;;;;3.75;2.30;;;14.60;99.90;;;;;;4962388;28;20019;-15
2023/10/24 10:02:17;;;;;;;3.00;2.15;;;14.60;99.90;;;;;;4965860;28;20121;-15
2023/10/24 10:04:43;;;;;;;4.20;2.05;;;14.60;99.90;;;;;;4933294;28;20029;-17
2023/10/24 10:07:11;;;;;;;2.93;1.80;;;14.60;99.90;;;;;;4969929;28;20893;-15
2023/10/24 10:09:42;;;;;;;2.97;1.67;;;14.60;99.90;;;;;;4937310;28;20305;-16
2023/10/24 10:12:12;;;;;;;3.00;1.55;;;14.60;99.90;;;;;;4970539;28;20077;-15
2023/10/24 10:14:57;;;;;;;2.90;1.70;;;14.50;99.90;;;;;;4956102;28;20034;-16
2023/10/24 10:17:41;;;;;;;2.53;1.40;;;14.50;99.90;;;;;;4970092;28;20399;-16
2023/10/24 10:20:30;;;;;;;1.90;1.30;;;14.50;99.90;;;;;;4948094;28;20041;-16
2023/10/24 10:23:33;;;;;;;1.80;1.10;;;14.50;99.90;;;;;;4958236;28;20054;-18
2023/10/24 10:26:14;;;;;;;1.85;1.20;;;14.40;99.90;;;;;;4943270;28;20051;-18
2023/10/24 10:28:57;;;;;;;1.48;1.13;;;14.40;99.90;;;;;;4961763;28;20396;-18
2023/10/24 10:31:45;;;;;;;1.10;0.82;;;14.30;99.90;;;;;;4971176;28;20026;-18
2023/10/24 10:34:11;;;;;;;2.10;1.10;;;14.30;99.90;;;;;;4975747;28;20073;-18
2023/10/24 10:36:54;;;;;;;1.20;0.90;;;14.30;99.90;;;;;;4957950;28;20031;-18
2023/10/24 10:39:20;;;;;;;1.70;0.90;;;14.30;99.90;;;;;;4973348;28;20030;-18
2023/10/24 10:41:45;;;;;;;1.45;0.80;;;14.20;99.90;;;;;;4944853;28;20069;-19
2023/10/24 10:44:34;;;;;;;2.00;1.00;;;14.20;99.90;;;;;;4964010;28;20440;-17
2023/10/24 10:47:02;;;;;;;0.93;0.80;;;14.20;99.90;;;;;;4972708;28;20254;-17
2023/10/24 10:49:39;;;;;;;1.75;1.00;;;14.20;99.90;;;;;;4977113;28;20065;-17
2023/10/24 10:52:15;;;;;;;1.27;0.87;;;14.20;99.90;;;;;;4965370;28;20021;-17
2023/10/24 10:55:04;;;;;;;1.13;0.90;;;14.20;99.90;;;;;;4970514;28;20037;-18
2023/10/24 10:57:32;;;;;;;2.05;0.90;;;14.10;99.90;;;;;;4947628;28;20085;-18
2023/10/24 11:00:08;;;;;;;1.35;0.90;;;14.10;99.90;;;;;;4960219;28;20253;-18
2023/10/24 11:02:55;;;;;;;1.73;1.00;;;14.10;99.90;;;;;;4984687;28;20050;-18
2023/10/24 11:05:42;;;;;;;1.73;1.00;;;14.10;99.90;;;;;;4988806;28;20463;-17
2023/10/24 11:08:17;;;;;;;1.98;1.10;;;14.30;99.90;;;;;;4987585;28;20129;-18
2023/10/24 11:10:56;;;;;;;2.97;1.10;;;14.10;99.90;;;;;;4946441;28;20534;-18
2023/10/24 11:13:42;;;;;;;2.63;1.30;;;14.10;99.90;;;;;;4977775;28;20023;-18
2023/10/24 11:16:10;;;;;;;2.20;1.10;;;14.20;99.90;;;;;;4960099;28;20045;-18
2023/10/24 11:18:37;;;;;;;2.53;1.10;;;14.20;99.90;;;;;;4971382;28;20108;-18
2023/10/24 11:21:05;;;;;;;1.60;0.88;;;14.20;99.90;;;;;;4946558;28;20594;-18
2023/10/24 11:23:32;;;;;;;1.45;1.00;;;14.20;99.90;;;;;;4970120;28;20042;-18
2023/10/24 11:26:03;;;;;;;1.20;0.90;;;14.30;99.90;;;;;;4963239;28;20343;-18
2023/10/24 11:28:32;;;;;;;1.10;0.88;;;14.30;99.90;;;;;;4959325;28;20058;-18
2023/10/24 11:30:58;;;;;;;1.20;0.90;;;14.40;99.90;;;;;;4987824;28;20019;-18
2023/10/24 11:33:25;;;;;;;1.48;1.10;;;14.50;99.90;;;;;;4973939;28;20619;-18
2023/10/24 11:35:52;;;;;;;0.98;0.77;;;14.60;99.90;;;;;;4984850;28;20449;-18
2023/10/24 11:38:18;;;;;;;1.13;1.02;;;15.10;99.90;;;;;;4955107;28;20046;-18
2023/10/24 11:40:47;;;;;;;1.37;0.97;;;15.50;99.90;;;;;;4971576;28;20043;-19
2023/10/24 11:43:15;;;;;;;1.70;0.90;;;16.00;99.90;;;;;;4940812;28;20038;-19
2023/10/24 11:45:41;;;;;;;1.55;1.00;;;16.60;99.90;;;;;;4976248;28;20109;-19
2023/10/24 11:48:06;;;;;;;0.95;0.85;;;17.20;99.90;;;;;;4958978;28;20042;-19
2023/10/24 11:50:43;;;;;;;1.23;1.00;;;17.70;99.90;;;;;;4970589;28;20093;-19
2023/10/24 11:53:19;;;;;;;1.95;1.08;;;18.30;99.90;;;;;;4959965;28;20048;-22
2023/10/24 11:55:44;;;;;;;2.95;1.35;;;18.80;99.90;;;;;;4991356;28;20381;-21
2023/10/24 11:58:11;;;;;;;4.73;1.10;;;19.20;99.90;;;;;;4947774;28;20054;-22
2023/10/24 12:00:40;;;;;;;1.52;1.10;;;19.60;99.90;;;;;;4970314;28;20035;-22
2023/10/24 12:03:07;;;;;;;1.33;0.90;;;19.90;99.90;;;;;;4971146;28;20062;-22
2023/10/24 12:05:33;;;;;;;1.33;1.00;;;20.20;99.90;;;;;;4955442;28;20101;-22
2023/10/24 12:08:00;;;;;;;1.47;0.90;;;20.40;99.90;;;;;;4951030;28;20449;-22
2023/10/24 12:10:33;;;;;;;1.73;1.10;;;20.50;99.90;;;;;;4965535;28;20616;-22
2023/10/24 12:13:03;;;;;;;1.42;1.10;;;20.70;99.90;;;;;;4964856;28;20050;-22
2023/10/24 12:15:32;;;;;;;1.48;0.82;;;20.80;99.90;;;;;;4964251;28;20312;-22
2023/10/24 12:18:04;;;;;;;1.77;1.20;;;20.80;99.90;;;;;;4970412;28;20034;-23
2023/10/24 12:20:30;;;;;;;1.50;1.17;;;20.90;99.90;;;;;;4975507;28;20039;-23
2023/10/24 12:22:56;;;;;;;1.08;0.80;;;21.00;99.90;;;;;;4983470;28;20088;-23
2023/10/24 12:25:22;;;;;;;1.45;1.08;;;21.10;99.90;;;;;;4949689;28;20424;-23
2023/10/24 12:27:48;;;;;;;1.02;0.95;;;21.20;99.90;;;;;;4979578;28;20109;-23
2023/10/24 12:30:14;;;;;;;1.70;0.93;;;21.20;99.90;;;;;;4961833;28;20690;-23
2023/10/24 12:32:43;;;;;;;1.73;1.05;;;21.40;99.90;;;;;;4969547;28;20050;-23
2023/10/24 12:35:09;;;;;;;1.70;1.10;;;21.50;99.90;;;;;;4966352;28;20034;-23
2023/10/24 12:37:36;;;;;;;1.77;1.10;;;19.80;99.90;;;;;;4967467;28;20086;-23
2023/10/24 12:40:06;;;;;;;1.23;0.90;;;21.80;99.90;;;;;;4964156;28;20040;-23
2023/10/24 12:42:36;;;;;;;0.80;0.70;;;21.90;99.90;;;;;;4959405;28;20026;-23
2023/10/24 12:45:02;;;;;;;0.82;0.80;;;21.80;99.90;;;;;;4967049;28;20050;-23
2023/10/24 12:47:28;;;;;;;1.55;0.90;;;21.70;99.90;;;;;;4952747;28;20188;-22
2023/10/24 12:49:54;;;;;;;1.20;1.03;;;21.80;99.90;;;;;;4972705;28;20093;-21